createdAt,value
2023-04-28T03:58:10.930Z,36.60
2023-04-28T03:59:11.041Z,36.60
2023-04-28T04:00:11.205Z,36.60
2023-04-28T04:01:11.332Z,36.60
2023-04-28T04:02:12.389Z,36.50
2023-04-28T04:03:11.778Z,36.49
2023-04-28T04:04:11.868Z,36.49
2023-04-28T04:05:11.977Z,36.38
2023-04-28T04:06:12.020Z,36.38
2023-04-28T04:07:13.127Z,36.38
2023-04-28T04:08:13.188Z,36.29
2023-04-28T04:09:12.352Z,36.29
2023-04-28T04:10:12.608Z,36.29
2023-04-28T04:11:14.477Z,36.18
2023-04-28T04:12:13.736Z,36.18
2023-04-28T04:13:12.990Z,36.16
2023-04-28T04:14:13.077Z,36.16
2023-04-28T04:15:13.210Z,36.16
2023-04-28T04:16:14.369Z,36.07
2023-04-28T04:17:14.375Z,36.07
2023-04-28T04:18:13.531Z,36.07
2023-04-28T04:19:13.648Z,36.07
2023-04-28T04:20:13.782Z,36.07
2023-04-28T04:21:13.866Z,36.07
2023-04-28T04:22:14.060Z,36.07
2023-04-28T04:23:14.320Z,35.97
2023-04-28T04:24:14.475Z,35.97
2023-04-28T04:25:14.404Z,35.97
2023-04-28T04:26:14.538Z,35.97
2023-04-28T04:27:15.565Z,35.97
2023-04-28T04:28:14.726Z,35.97
2023-04-28T04:29:14.893Z,35.97
2023-04-28T04:30:14.996Z,35.97
2023-04-28T04:31:16.128Z,35.97
2023-04-28T04:32:15.215Z,35.86
2023-04-28T04:33:15.349Z,35.97
2023-04-28T04:34:15.780Z,35.86
2023-04-28T04:35:15.595Z,35.86
2023-04-28T04:36:15.785Z,35.86
2023-04-28T04:37:15.899Z,35.86
2023-04-28T04:38:16.007Z,35.86
2023-04-28T04:39:16.132Z,35.86
2023-04-28T04:40:16.267Z,35.86
2023-04-28T04:41:16.405Z,35.86
2023-04-28T04:42:24.884Z,35.86
2023-04-28T04:43:18.634Z,35.86
2023-04-28T04:44:16.987Z,35.86
2023-04-28T04:45:16.885Z,35.86
2023-04-28T04:46:17.101Z,35.86
2023-04-28T04:47:18.121Z,35.86
2023-04-28T04:48:17.343Z,35.77
2023-04-28T04:49:17.414Z,35.86
2023-04-28T04:50:17.558Z,35.86
2023-04-28T04:51:17.639Z,35.86
2023-04-28T04:52:17.790Z,35.86
2023-04-28T04:53:17.957Z,35.86
2023-04-28T04:54:18.015Z,35.86
2023-04-28T04:55:18.145Z,35.86
2023-04-28T04:56:18.269Z,35.86
2023-04-28T04:57:18.349Z,35.86
2023-04-28T04:58:18.406Z,35.86
2023-04-28T04:59:18.571Z,35.86
2023-04-28T05:00:18.665Z,35.86
2023-04-28T05:01:18.889Z,35.86
2023-04-28T05:02:18.960Z,35.86
2023-04-28T05:03:19.133Z,35.86
2023-04-28T05:04:19.518Z,35.86
2023-04-28T05:05:21.760Z,35.86
2023-04-28T05:06:19.469Z,35.86
2023-04-28T05:07:20.535Z,35.77
2023-04-28T05:08:19.708Z,35.75
2023-04-28T05:09:19.834Z,35.77
2023-04-28T05:10:19.958Z,35.77
2023-04-28T05:11:20.080Z,35.75
2023-04-28T05:12:20.242Z,35.75
2023-04-28T05:13:20.403Z,35.75
2023-04-28T05:14:20.494Z,35.75
2023-04-28T05:15:20.648Z,35.75
2023-04-28T05:16:20.871Z,35.75
2023-04-28T05:17:20.927Z,35.75
2023-04-28T05:18:21.100Z,35.75
2023-04-28T05:19:21.199Z,35.75
2023-04-28T05:20:21.353Z,35.85
2023-04-28T05:21:21.520Z,35.85
2023-04-28T05:22:21.588Z,35.85
2023-04-28T05:23:21.733Z,35.85
2023-04-28T05:24:21.882Z,35.95
2023-04-28T05:25:22.079Z,35.95
2023-04-28T05:26:22.143Z,35.95
2023-04-28T05:27:22.272Z,35.95
2023-04-28T05:28:22.450Z,36.05
2023-04-28T05:29:22.591Z,36.05
2023-04-28T05:30:22.772Z,36.05
2023-04-28T05:31:22.850Z,36.05
2023-04-28T05:32:23.167Z,36.05
2023-04-28T05:33:23.073Z,36.15
2023-04-28T05:34:23.168Z,36.15
2023-04-28T05:35:23.312Z,36.15
2023-04-28T05:36:23.471Z,36.15
2023-04-28T05:37:23.530Z,36.15
2023-04-28T05:38:23.710Z,36.15
2023-04-28T05:39:23.795Z,36.15
2023-04-28T05:40:23.990Z,36.25
2023-04-28T05:41:24.217Z,36.25
2023-04-28T05:42:24.257Z,36.25
2023-04-28T05:44:41.807Z,36.25
2023-04-28T05:45:41.012Z,36.25
2023-04-28T05:46:40.245Z,36.25
2023-04-28T05:47:40.372Z,36.25
2023-04-28T05:48:40.391Z,36.25
2023-04-28T05:49:40.687Z,36.25
2023-04-28T05:50:40.699Z,36.25
2023-04-28T05:51:41.018Z,36.35
2023-04-28T05:52:41.067Z,36.35
2023-04-28T05:53:41.190Z,36.35
2023-04-28T05:54:41.288Z,36.35
2023-04-28T05:55:41.387Z,36.35
2023-04-28T05:56:41.608Z,36.35
2023-04-28T05:57:49.790Z,36.35
2023-04-28T05:58:42.799Z,36.35
2023-04-28T05:59:42.846Z,36.35
2023-04-28T06:00:42.042Z,36.45
2023-04-28T06:01:42.673Z,36.45
2023-04-28T06:02:42.658Z,36.45
2023-04-28T06:03:42.739Z,36.45
2023-04-28T06:04:42.980Z,36.45
2023-04-28T06:05:43.178Z,36.45
2023-04-28T06:06:43.832Z,36.55
2023-04-28T06:07:44.730Z,36.55
2023-04-28T06:08:43.300Z,36.55
2023-04-28T06:09:43.437Z,36.55
2023-04-28T06:10:43.630Z,36.55
2023-04-28T06:11:43.694Z,36.55
2023-04-28T06:12:44.770Z,36.55
2023-04-28T06:13:44.962Z,36.55
2023-04-28T06:14:44.230Z,36.55
2023-04-28T06:15:44.587Z,36.55
2023-04-28T06:16:44.556Z,36.55
2023-04-28T06:17:44.662Z,36.65
2023-04-28T06:18:44.527Z,36.65
2023-04-28T06:19:44.743Z,36.65
2023-04-28T06:20:44.888Z,36.65
2023-04-28T06:21:45.025Z,36.65
2023-04-28T06:22:45.112Z,36.65
2023-04-28T06:23:46.102Z,36.65
2023-04-28T06:24:45.751Z,36.65
2023-04-28T06:25:45.714Z,36.65
2023-04-28T06:26:45.771Z,36.75
2023-04-28T06:27:45.865Z,36.75
2023-04-28T06:28:46.581Z,36.75
2023-04-28T06:29:46.067Z,36.73
2023-04-28T06:30:46.149Z,36.75
2023-04-28T06:31:46.537Z,36.75
2023-04-28T06:32:46.382Z,36.73
2023-04-28T06:33:46.506Z,36.73
2023-04-28T06:34:46.621Z,36.73
2023-04-28T06:35:46.903Z,36.73
2023-04-28T06:36:46.942Z,36.73
2023-04-28T06:37:47.109Z,36.73
2023-04-28T06:38:48.117Z,36.73
2023-04-28T06:39:47.479Z,36.83
2023-04-28T06:40:47.624Z,36.83
2023-04-28T06:41:48.954Z,36.83
2023-04-28T06:42:47.817Z,36.83
2023-04-28T06:43:48.115Z,36.83
2023-04-28T06:44:48.332Z,36.83
2023-04-28T06:45:48.353Z,36.83
2023-04-28T06:46:48.433Z,36.83
2023-04-28T06:47:48.434Z,36.83
2023-04-28T06:48:48.695Z,36.93
2023-04-28T06:49:49.708Z,36.93
2023-04-28T06:50:49.874Z,36.93
2023-04-28T06:51:48.961Z,36.93
2023-04-28T06:52:49.027Z,37.04
2023-04-28T06:53:49.216Z,37.04
2023-04-28T06:54:49.419Z,37.04
2023-04-28T06:55:49.507Z,37.04
2023-04-28T06:56:49.668Z,37.04
2023-04-28T06:57:49.857Z,37.04
2023-04-28T06:58:50.075Z,37.04
2023-04-28T06:59:50.140Z,37.04
2023-04-28T07:00:50.278Z,37.13
2023-04-28T07:01:50.497Z,37.13
2023-04-28T07:02:51.746Z,37.13
2023-04-28T07:03:50.708Z,37.13
2023-04-28T07:04:50.857Z,37.13
2023-04-28T07:05:51.143Z,37.24
2023-04-28T07:06:51.244Z,37.24
2023-04-28T07:07:51.255Z,37.24
2023-04-28T07:08:51.381Z,37.24
2023-04-28T07:09:51.585Z,37.24
2023-04-28T07:10:51.652Z,37.24
2023-04-28T07:11:51.931Z,37.24
2023-04-28T07:12:52.139Z,37.24
2023-04-28T07:13:52.132Z,37.34
2023-04-28T07:14:53.240Z,37.34
2023-04-28T07:15:52.525Z,37.34
2023-04-28T07:16:52.833Z,37.34
2023-04-28T07:17:52.777Z,37.34
2023-04-28T07:18:52.827Z,37.34
2023-04-28T07:19:53.025Z,37.34
2023-04-28T07:20:53.289Z,37.34
2023-04-28T07:21:53.297Z,37.34
2023-04-28T07:22:54.214Z,37.34
2023-04-28T07:23:53.814Z,37.44
2023-04-28T07:24:53.636Z,37.44
2023-04-28T07:25:53.658Z,37.44
2023-04-28T07:26:55.364Z,37.44
2023-04-28T07:27:54.043Z,37.54
2023-04-28T07:28:54.102Z,37.54
2023-04-28T07:29:54.238Z,37.54
2023-04-28T07:30:54.705Z,37.54
2023-04-28T07:31:54.647Z,37.54
2023-04-28T07:34:10.503Z,37.63
2023-04-28T07:35:10.392Z,37.63
2023-04-28T07:36:10.603Z,37.74
2023-04-28T07:37:11.689Z,37.74
2023-04-28T07:38:10.986Z,37.74
2023-04-28T07:39:11.018Z,37.74
2023-04-28T07:40:11.277Z,37.74
2023-04-28T07:41:11.539Z,37.84
2023-04-28T07:42:11.374Z,37.82
2023-04-28T07:43:11.809Z,37.84
2023-04-28T07:44:13.292Z,37.84
2023-04-28T07:45:11.773Z,37.92
2023-04-28T07:46:12.077Z,37.82
2023-04-28T07:47:11.987Z,37.92
2023-04-28T07:48:12.217Z,37.92
2023-04-28T07:49:12.139Z,37.92
2023-04-28T07:50:13.233Z,37.94
2023-04-28T07:51:12.567Z,37.94
2023-04-28T07:52:12.505Z,37.92
2023-04-28T07:53:13.716Z,38.02
2023-04-28T07:54:12.985Z,38.02
2023-04-28T07:55:13.039Z,38.02
2023-04-28T07:56:13.207Z,38.02
2023-04-28T07:57:13.641Z,37.92
2023-04-28T07:58:13.423Z,38.02
2023-04-28T07:59:13.625Z,38.02
2023-04-28T08:00:13.602Z,38.02
2023-04-28T08:01:14.013Z,38.02
2023-04-28T08:02:14.059Z,38.02
2023-04-28T08:03:14.451Z,38.02
2023-04-28T08:04:15.417Z,38.02
2023-04-28T08:05:14.831Z,38.02
2023-04-28T08:06:15.461Z,38.02
2023-04-28T08:07:15.320Z,38.02
2023-04-28T08:08:16.606Z,38.02
2023-04-28T08:09:14.818Z,38.02
2023-04-28T08:10:15.053Z,38.02
2023-04-28T08:11:15.181Z,38.02
2023-04-28T08:12:17.263Z,38.02
2023-04-28T08:13:15.400Z,38.12
2023-04-28T08:14:16.755Z,38.12
2023-04-28T08:15:17.302Z,38.12
2023-04-28T08:16:16.914Z,38.12
2023-04-28T08:17:16.989Z,38.12
2023-04-28T08:18:17.231Z,38.12
2023-04-28T08:19:16.339Z,38.22
2023-04-28T08:20:16.500Z,38.12
2023-04-28T08:21:16.679Z,38.22
2023-04-28T08:22:16.758Z,38.22
2023-04-28T08:23:16.875Z,38.22
2023-04-28T08:24:18.128Z,38.22
2023-04-28T08:25:17.518Z,38.22
2023-04-28T08:26:17.197Z,38.32
2023-04-28T08:27:17.690Z,38.32
2023-04-28T08:28:17.513Z,38.32
2023-04-28T08:29:17.764Z,38.32
2023-04-28T08:30:17.868Z,38.32
2023-04-28T08:31:18.068Z,38.32
2023-04-28T08:32:18.211Z,38.32
2023-04-28T08:33:18.349Z,38.32
2023-04-28T08:34:18.849Z,38.42
2023-04-28T08:35:19.569Z,38.42
2023-04-28T08:36:18.806Z,38.32
2023-04-28T08:37:19.002Z,38.42
2023-04-28T08:38:19.077Z,38.42
2023-04-28T08:39:20.110Z,38.42
2023-04-28T08:40:19.359Z,38.42
2023-04-28T08:41:19.426Z,38.42
2023-04-28T08:42:19.591Z,38.53
2023-04-28T08:43:19.827Z,38.53
2023-04-28T08:44:19.981Z,38.53
2023-04-28T08:45:19.912Z,38.53
2023-04-28T08:46:20.110Z,38.53
2023-04-28T08:47:21.365Z,38.53
2023-04-28T08:48:20.240Z,38.62
2023-04-28T08:49:21.514Z,38.62
2023-04-28T08:50:20.549Z,38.62
2023-04-28T08:51:21.589Z,38.62
2023-04-28T08:52:20.902Z,38.62
2023-04-28T08:53:20.996Z,38.62
2023-04-28T08:54:29.767Z,38.62
2023-04-28T08:55:23.190Z,38.62
2023-04-28T08:56:21.367Z,38.62
2023-04-28T08:57:22.505Z,38.72
2023-04-28T08:58:21.684Z,38.72
2023-04-28T08:59:22.704Z,38.72
2023-04-28T09:00:21.911Z,38.72
2023-04-28T09:01:22.062Z,38.72
2023-04-28T09:02:22.385Z,38.72
2023-04-28T09:03:22.411Z,38.72
2023-04-28T09:04:23.697Z,38.82
2023-04-28T09:05:22.904Z,38.72
2023-04-28T09:06:22.753Z,38.72
2023-04-28T09:07:23.910Z,38.82
2023-04-28T09:08:23.910Z,38.82
2023-04-28T09:09:24.105Z,38.82
2023-04-28T09:10:24.759Z,38.82
2023-04-28T09:11:23.361Z,38.82
2023-04-28T09:12:23.674Z,38.82
2023-04-28T09:13:23.752Z,38.82
2023-04-28T09:14:23.831Z,38.82
2023-04-28T09:15:23.915Z,38.90
2023-04-28T09:16:25.059Z,38.92
2023-04-28T09:17:24.398Z,38.81
2023-04-28T09:18:24.485Z,38.81
2023-04-28T09:19:24.684Z,38.81
2023-04-28T09:20:24.837Z,38.90
2023-04-28T09:21:25.805Z,38.90
2023-04-28T09:22:26.601Z,38.90
2023-04-28T09:24:40.554Z,38.90
2023-04-28T09:25:41.669Z,38.90
2023-04-28T09:26:41.019Z,38.90
2023-04-28T09:27:41.035Z,38.90
2023-04-28T09:28:41.163Z,38.90
2023-04-28T09:29:42.032Z,39.01
2023-04-28T09:30:41.599Z,38.90
2023-04-28T09:31:41.623Z,39.01
2023-04-28T09:32:41.718Z,39.01
2023-04-28T09:33:41.811Z,39.01
2023-04-28T09:34:41.855Z,39.01
2023-04-28T09:35:42.125Z,39.01
2023-04-28T09:36:45.308Z,39.11
2023-04-28T09:37:42.442Z,39.11
2023-04-28T09:38:42.730Z,39.11
2023-04-28T09:39:42.650Z,39.11
2023-04-28T09:40:42.797Z,39.11
2023-04-28T09:41:42.928Z,39.18
2023-04-28T09:42:43.084Z,39.18
2023-04-28T09:43:43.381Z,39.29
2023-04-28T09:44:43.359Z,39.29
2023-04-28T09:45:44.413Z,39.39
2023-04-28T09:46:44.497Z,39.29
2023-04-28T09:47:44.068Z,39.39
2023-04-28T09:48:44.248Z,39.39
2023-04-28T09:49:43.892Z,39.39
2023-04-28T09:50:44.387Z,39.40
2023-04-28T09:51:44.235Z,39.39
2023-04-28T09:52:44.393Z,39.40
2023-04-28T09:53:44.596Z,39.51
2023-04-28T09:54:44.565Z,39.51
2023-04-28T09:55:45.097Z,39.51
2023-04-28T09:56:45.215Z,39.51
2023-04-28T09:57:45.505Z,39.51
2023-04-28T09:58:45.200Z,39.51
2023-04-28T09:59:45.540Z,39.61
2023-04-28T10:00:45.600Z,39.71
2023-04-28T10:01:45.890Z,39.71
2023-04-28T10:12:32.379Z,40.33
2023-04-28T10:13:32.489Z,40.43
2023-04-28T10:14:32.623Z,40.43
2023-04-28T10:15:33.120Z,40.43
2023-04-28T10:16:33.271Z,40.53
2023-04-28T10:17:33.115Z,40.53
2023-04-28T10:18:33.266Z,40.63
2023-04-28T10:19:33.252Z,40.53
2023-04-28T10:20:34.474Z,40.43
2023-04-28T10:21:33.467Z,40.51
2023-04-28T10:22:33.626Z,40.61
2023-04-28T10:23:33.828Z,40.51
2023-04-28T10:24:33.941Z,40.51
2023-04-28T10:25:34.106Z,40.51
2023-04-28T10:26:35.152Z,40.51
2023-04-28T10:27:34.271Z,40.61
2023-04-28T10:28:34.588Z,40.51
2023-04-28T10:29:34.594Z,40.61
2023-04-28T10:30:34.705Z,40.71
2023-04-28T10:31:35.616Z,40.71
2023-04-28T10:32:35.263Z,40.71
2023-04-28T10:33:35.102Z,40.61
2023-04-28T10:34:35.356Z,40.71
2023-04-28T10:35:36.242Z,40.71
2023-04-28T10:36:36.572Z,40.81
2023-04-28T10:37:36.656Z,40.81
2023-04-28T10:38:35.793Z,40.81
2023-04-28T10:39:35.828Z,40.81
2023-04-28T10:40:36.043Z,40.91
2023-04-28T10:41:36.178Z,40.91
2023-04-28T10:42:36.233Z,40.91
2023-04-28T10:43:36.479Z,40.81
2023-04-28T10:44:36.676Z,40.91
2023-04-28T10:45:37.708Z,40.91
2023-04-28T10:46:36.897Z,40.91
2023-04-28T10:47:37.027Z,41.11
2023-04-28T10:48:37.195Z,41.01
2023-04-28T10:49:37.269Z,41.01
2023-04-28T10:50:39.451Z,41.01
2023-04-28T10:51:37.726Z,41.01
2023-04-28T10:52:38.612Z,41.01
2023-04-28T10:53:38.831Z,40.99
2023-04-28T10:54:38.892Z,40.99
2023-04-28T10:55:38.185Z,40.99
2023-04-28T10:56:40.619Z,40.99
2023-04-28T10:57:39.214Z,40.99
2023-04-28T10:58:38.673Z,40.99
2023-04-28T10:59:39.514Z,40.99
2023-04-28T11:00:38.804Z,40.99
2023-04-28T11:01:38.996Z,40.99
2023-04-28T11:02:41.868Z,41.09
2023-04-28T11:03:40.468Z,40.99
2023-04-28T11:04:40.422Z,40.99
2023-04-28T11:05:39.550Z,40.99
2023-04-28T11:06:39.612Z,40.89
2023-04-28T11:07:39.723Z,40.89
2023-04-28T11:08:40.835Z,40.99
2023-04-28T11:09:40.080Z,40.89
2023-04-28T11:10:40.141Z,40.99
2023-04-28T11:11:40.491Z,40.99
2023-04-28T11:12:40.458Z,40.97
2023-04-28T11:13:42.452Z,40.87
2023-04-28T11:14:41.411Z,40.87
2023-04-28T11:15:41.336Z,40.87
2023-04-28T11:16:42.003Z,40.87
2023-04-28T11:17:41.220Z,40.77
2023-04-28T11:18:41.271Z,40.67
2023-04-28T11:19:41.684Z,40.77
2023-04-28T11:20:41.414Z,40.77
2023-04-28T11:21:41.675Z,40.67
2023-04-28T11:22:41.697Z,40.57
2023-04-28T11:23:42.604Z,40.57
2023-04-28T11:24:41.884Z,40.67
2023-04-28T11:25:41.997Z,40.67
2023-04-28T11:26:43.067Z,40.77
2023-04-28T11:27:42.340Z,40.77
2023-04-28T11:28:42.504Z,40.75
2023-04-28T11:29:42.666Z,40.65
2023-04-28T11:30:42.873Z,40.65
2023-04-28T11:31:42.955Z,40.65
2023-04-28T11:32:43.276Z,40.55
2023-04-28T11:33:43.206Z,40.45
2023-04-28T11:34:43.369Z,40.55
2023-04-28T11:35:43.478Z,40.55
2023-04-28T11:36:43.614Z,40.55
2023-04-28T11:37:43.780Z,40.55
2023-04-28T11:38:43.880Z,40.45
2023-04-28T11:39:44.040Z,40.45
2023-04-28T11:40:44.197Z,40.45
2023-04-28T11:41:44.330Z,40.45
2023-04-28T11:42:44.495Z,40.45
2023-04-28T11:43:47.382Z,40.45
2023-04-28T11:44:44.820Z,40.35
2023-04-28T11:45:45.001Z,40.45
2023-04-28T11:46:45.083Z,40.45
2023-04-28T11:47:45.266Z,40.45
2023-04-28T11:48:45.424Z,40.23
2023-04-28T11:49:45.650Z,40.33
2023-04-28T11:50:45.927Z,40.33
2023-04-28T11:53:01.050Z,0.00
2023-04-28T11:54:01.006Z,0.00
2023-04-28T11:55:01.384Z,0.00
2023-04-28T11:56:01.050Z,0.00
2023-04-28T11:57:01.187Z,0.00
2023-04-28T11:58:01.000Z,0.00
2023-04-28T11:59:01.871Z,0.00
2023-04-28T12:00:01.042Z,0.00
2023-04-28T12:01:00.993Z,0.00
2023-04-28T12:02:01.068Z,0.00
2023-04-28T12:03:01.244Z,0.00
2023-04-28T12:04:01.241Z,0.00
2023-04-28T12:05:01.129Z,0.00
2023-04-28T12:06:01.308Z,0.00
2023-04-28T12:07:01.172Z,0.00
2023-04-28T12:08:01.079Z,0.00
2023-04-28T12:09:01.073Z,0.00
2023-04-28T12:10:01.115Z,0.00
2023-04-28T12:11:01.200Z,0.00
2023-04-28T12:12:01.323Z,0.00
2023-04-28T12:13:01.103Z,0.00
2023-04-28T12:14:01.110Z,0.00
2023-04-28T12:15:01.121Z,0.00
2023-04-28T12:16:01.128Z,0.00
2023-04-28T12:17:01.107Z,0.00
2023-04-28T12:18:01.199Z,0.00
2023-04-28T12:19:01.149Z,0.00
2023-04-28T12:20:01.151Z,0.00
2023-04-28T12:21:01.150Z,0.00
2023-04-28T12:22:01.160Z,0.00
2023-04-28T12:23:01.166Z,0.00
2023-04-28T12:24:01.168Z,0.00
2023-04-28T12:25:01.180Z,0.00
2023-04-28T12:26:01.173Z,0.00
2023-04-28T12:27:01.192Z,0.00
2023-04-28T12:28:01.232Z,0.00
2023-04-28T12:29:01.207Z,0.00
2023-04-28T12:30:01.210Z,0.00
2023-04-28T12:31:01.221Z,0.00
2023-04-28T12:32:01.201Z,0.00
2023-04-28T12:33:01.240Z,0.00
2023-04-28T12:34:01.241Z,0.00
2023-04-28T12:35:01.218Z,0.00
2023-04-28T12:36:01.224Z,0.00
2023-04-28T12:37:01.231Z,0.00
2023-04-28T12:38:01.260Z,0.00
2023-04-28T12:39:01.282Z,0.00
2023-04-28T12:40:01.258Z,0.00
2023-04-28T12:41:01.280Z,0.00
2023-04-28T12:42:01.251Z,0.00
2023-04-28T12:43:01.305Z,0.00
2023-04-28T12:44:01.289Z,0.00
2023-04-28T12:45:01.320Z,0.00
2023-04-28T12:46:01.329Z,0.00
2023-04-28T12:47:01.329Z,0.00
2023-04-28T12:48:01.369Z,0.00
2023-04-28T12:49:01.371Z,0.00
2023-04-28T12:50:01.368Z,0.00
2023-04-28T12:51:01.319Z,0.00
2023-04-28T12:52:01.369Z,0.00
2023-04-28T12:53:01.371Z,0.00
2023-04-28T12:54:01.370Z,0.00
2023-04-28T12:55:01.361Z,0.00
2023-04-28T12:56:01.406Z,0.00
2023-04-28T12:57:01.365Z,0.00
2023-04-28T12:58:01.358Z,0.00
2023-04-28T12:59:01.361Z,0.00
2023-04-28T13:00:01.440Z,0.00
2023-04-28T13:01:01.431Z,0.00
2023-04-28T13:02:01.412Z,0.00
2023-04-28T13:03:01.464Z,0.00
2023-04-28T13:04:01.576Z,0.00
2023-04-28T13:05:01.497Z,0.00
2023-04-28T13:06:02.383Z,0.00
2023-04-28T13:07:01.416Z,0.00
2023-04-28T13:08:01.468Z,0.00
2023-04-28T13:09:01.434Z,0.00
2023-04-28T13:10:01.462Z,0.00
2023-04-28T13:11:04.966Z,0.00
2023-04-28T13:12:02.441Z,0.00
2023-04-28T13:13:01.470Z,0.00
2023-04-28T13:14:01.461Z,0.00
2023-04-28T13:15:01.530Z,0.00
2023-04-28T13:16:01.514Z,0.00
2023-04-28T13:17:01.501Z,0.00
2023-04-28T13:18:01.549Z,0.00
2023-04-28T13:19:01.503Z,0.00
2023-04-28T13:20:01.509Z,0.00
2023-04-28T13:21:01.487Z,0.00
2023-04-28T13:22:01.534Z,0.00
2023-04-28T13:23:01.540Z,0.00
2023-04-28T13:24:01.530Z,0.00
2023-04-28T13:25:01.561Z,0.00
2023-04-28T13:26:01.533Z,0.00
2023-04-28T13:27:01.551Z,0.00
2023-04-28T13:28:01.559Z,0.00
2023-04-28T13:29:01.560Z,0.00
2023-04-28T13:30:01.576Z,0.00
2023-04-28T13:31:01.552Z,0.00
2023-04-28T13:32:01.591Z,0.00
2023-04-28T13:33:01.624Z,0.00
2023-04-28T13:34:01.622Z,0.00
2023-04-28T13:35:01.614Z,0.00
2023-04-28T13:36:01.614Z,0.00
2023-04-28T13:37:01.618Z,0.00
2023-04-28T13:38:01.656Z,0.00
2023-04-28T13:39:02.494Z,0.00
2023-04-28T13:40:01.638Z,0.00
2023-04-28T13:41:01.636Z,0.00
2023-04-28T13:42:01.717Z,0.00
2023-04-28T13:43:01.629Z,0.00
2023-04-28T13:44:01.674Z,0.00
2023-04-28T13:45:01.682Z,0.00
2023-04-28T13:46:01.863Z,0.00
2023-04-28T13:47:01.646Z,0.00
2023-04-28T13:48:01.717Z,0.00
2023-04-28T13:49:01.666Z,0.00
2023-04-28T13:50:01.682Z,0.00
2023-04-28T13:51:01.766Z,0.00
2023-04-28T13:52:01.728Z,0.00
2023-04-28T13:53:01.733Z,0.00
2023-04-28T13:54:02.658Z,0.00
2023-04-28T13:55:01.749Z,0.00
2023-04-28T13:56:01.776Z,0.00
2023-04-28T13:57:01.787Z,0.00
2023-04-28T13:58:01.754Z,0.00
2023-04-28T13:59:01.721Z,0.00
2023-04-28T14:00:01.738Z,0.00
2023-04-28T14:01:01.785Z,0.00
2023-04-28T14:02:01.778Z,0.00
2023-04-28T14:03:01.989Z,0.00
2023-04-28T14:04:01.976Z,0.00
2023-04-28T14:05:01.808Z,0.00
2023-04-28T14:06:01.783Z,0.00
2023-04-28T14:07:02.794Z,0.00
2023-04-28T14:08:01.808Z,0.00
2023-04-28T14:09:01.813Z,0.00
2023-04-28T14:10:01.876Z,0.00
2023-04-28T14:11:01.812Z,0.00
2023-04-28T14:12:01.858Z,0.00
2023-04-28T14:13:01.806Z,0.00
2023-04-28T14:14:01.813Z,0.00
2023-04-28T14:15:01.824Z,0.00
2023-04-28T14:16:01.859Z,0.00
2023-04-28T14:17:02.067Z,0.00
2023-04-28T14:18:01.907Z,0.00
2023-04-28T14:19:01.880Z,0.00
2023-04-28T14:20:02.061Z,0.00
2023-04-28T14:21:01.944Z,0.00
2023-04-28T14:22:01.869Z,0.00
2023-04-28T14:23:01.896Z,0.00
2023-04-28T14:24:01.893Z,0.00
2023-04-28T14:25:01.872Z,0.00
2023-04-28T14:26:01.906Z,0.00
2023-04-28T14:27:01.928Z,0.00
2023-04-28T14:28:01.933Z,0.00
2023-04-28T14:29:01.929Z,0.00
2023-04-28T14:30:02.009Z,0.00
2023-04-28T14:31:01.993Z,0.00
2023-04-28T14:32:01.940Z,0.00
2023-04-28T14:33:01.968Z,0.00
2023-04-28T14:34:01.946Z,0.00
2023-04-28T14:35:01.957Z,0.00
2023-04-28T14:36:01.990Z,0.00
2023-04-28T14:37:01.985Z,0.00
2023-04-28T14:38:01.951Z,0.00
2023-04-28T14:39:01.981Z,0.00
2023-04-28T14:40:01.953Z,0.00
2023-04-28T14:41:02.019Z,0.00
2023-04-28T14:42:01.986Z,0.00
2023-04-28T14:43:02.023Z,0.00
2023-04-28T14:44:02.005Z,0.00
2023-04-28T14:45:02.008Z,0.00
2023-04-28T14:46:02.101Z,0.00
2023-04-28T14:47:02.043Z,0.00
2023-04-28T14:48:02.083Z,0.00
2023-04-28T14:49:02.021Z,0.00
2023-04-28T14:50:02.032Z,0.00
2023-04-28T14:51:02.058Z,0.00
2023-04-28T14:52:02.081Z,0.00
2023-04-28T14:53:02.051Z,0.00
2023-04-28T14:54:02.074Z,0.00
2023-04-28T14:55:02.060Z,0.00
2023-04-28T14:56:17.280Z,0.00
2023-04-28T14:57:03.074Z,0.00
2023-04-28T14:58:02.083Z,0.00
2023-04-28T14:59:02.087Z,0.00
2023-04-28T15:00:02.092Z,0.00
2023-04-28T15:01:02.111Z,0.00
2023-04-28T15:02:02.159Z,0.00
2023-04-28T15:03:02.226Z,0.00
2023-04-28T15:04:02.380Z,0.00
2023-04-28T15:05:02.443Z,0.00
2023-04-28T15:06:02.207Z,0.00
2023-04-28T15:07:02.139Z,0.00
2023-04-28T15:08:02.144Z,0.00
2023-04-28T15:09:02.158Z,0.00
2023-04-28T15:10:02.152Z,0.00
2023-04-28T15:11:02.192Z,0.00
2023-04-28T15:12:02.188Z,0.00
2023-04-28T15:13:02.230Z,0.00
2023-04-28T15:14:02.277Z,0.00
2023-04-28T15:15:02.201Z,0.00
2023-04-28T15:16:02.232Z,0.00
2023-04-28T15:17:02.211Z,0.00
2023-04-28T15:18:02.289Z,0.00
2023-04-28T15:19:02.306Z,0.00
2023-04-28T15:20:02.278Z,0.00
2023-04-28T15:21:02.226Z,0.00
2023-04-28T15:22:02.233Z,0.00
2023-04-28T15:23:02.246Z,0.00
2023-04-28T15:24:02.272Z,0.00
2023-04-28T15:25:02.255Z,0.00
2023-04-28T15:26:02.251Z,0.00
2023-04-28T15:27:03.385Z,0.00
2023-04-28T15:28:03.263Z,0.00
2023-04-28T15:29:02.272Z,0.00
2023-04-28T15:30:03.244Z,0.00
2023-04-28T15:31:02.293Z,0.00
2023-04-28T15:32:02.364Z,0.00
2023-04-28T15:33:02.394Z,0.00
2023-04-28T15:34:02.285Z,0.00
2023-04-28T15:35:02.337Z,0.00
2023-04-28T15:36:02.335Z,0.00
2023-04-28T15:37:02.370Z,0.00
2023-04-28T15:38:03.361Z,0.00
2023-04-28T15:39:02.369Z,0.00
2023-04-28T15:40:02.379Z,0.00
2023-04-28T15:41:02.368Z,0.00
2023-04-28T15:42:02.356Z,0.00
2023-04-28T15:43:02.360Z,0.00
2023-04-28T15:44:02.348Z,0.00
2023-04-28T15:45:02.427Z,0.00
2023-04-28T15:46:02.387Z,0.00
2023-04-28T15:47:02.357Z,0.00
2023-04-28T15:48:02.403Z,0.00
2023-04-28T15:49:02.412Z,0.00
2023-04-28T15:50:02.385Z,0.00
2023-04-28T15:51:02.400Z,0.00
2023-04-28T15:52:02.388Z,0.00
2023-04-28T15:53:02.415Z,0.00
2023-04-28T15:54:02.410Z,0.00
2023-04-28T15:55:02.414Z,0.00
2023-04-28T15:56:02.444Z,0.00
2023-04-28T15:57:03.401Z,0.00
2023-04-28T15:58:02.503Z,0.00
2023-04-28T15:59:02.430Z,0.00
2023-04-28T16:00:02.508Z,0.00
2023-04-28T16:11:39.801Z,47.13
2023-04-28T16:12:39.884Z,47.23
2023-04-28T16:13:40.019Z,47.33
2023-04-28T16:14:40.098Z,47.13
2023-04-28T16:15:40.217Z,47.23
2023-04-28T16:16:40.427Z,47.33
2023-04-28T16:17:40.532Z,47.33
2023-04-28T16:18:40.594Z,47.33
2023-04-28T16:19:40.757Z,47.33
2023-04-28T16:20:41.858Z,47.33
2023-04-28T16:21:41.066Z,47.20
2023-04-28T16:22:42.150Z,47.31
2023-04-28T16:23:41.354Z,47.31
2023-04-28T16:24:41.505Z,47.20
2023-04-28T16:25:41.677Z,47.31
2023-04-28T16:26:42.008Z,47.20
2023-04-28T16:27:41.915Z,47.20
2023-04-28T16:28:42.088Z,47.20
2023-04-28T16:29:42.236Z,47.20
2023-04-28T16:30:42.405Z,47.31
2023-04-28T16:31:42.709Z,47.31
2023-04-28T16:32:42.665Z,47.20
2023-04-28T16:33:42.767Z,47.11
2023-04-28T16:34:42.893Z,47.20
2023-04-28T16:35:43.067Z,47.31
2023-04-28T16:36:43.231Z,47.20
2023-04-28T16:37:43.396Z,47.20
2023-04-28T16:38:45.720Z,47.20
2023-04-28T16:39:43.712Z,47.20
2023-04-28T16:40:43.808Z,47.20
2023-04-28T16:41:44.896Z,47.31
2023-04-28T16:42:44.066Z,47.31
2023-04-28T16:43:44.313Z,47.20
2023-04-28T16:44:44.353Z,47.31
2023-04-28T16:45:44.527Z,47.31
2023-04-28T16:46:44.658Z,47.31
2023-04-28T16:47:44.869Z,47.41
2023-04-28T16:48:45.187Z,47.41
2023-04-28T16:49:45.025Z,47.41
2023-04-28T16:50:45.169Z,47.50
2023-04-28T16:51:45.280Z,47.50
2023-04-28T16:52:45.429Z,47.50
2023-04-28T16:53:45.598Z,47.41
2023-04-28T16:54:45.716Z,47.50
2023-04-28T16:55:45.886Z,47.50
2023-04-28T16:56:46.950Z,47.50
2023-04-28T16:57:46.156Z,47.50
2023-04-28T16:58:46.283Z,47.50
2023-04-28T16:59:46.420Z,47.50
2023-04-28T17:00:46.607Z,47.50
2023-04-28T17:01:46.808Z,47.50
2023-04-28T17:02:47.088Z,47.50
2023-04-28T17:03:47.243Z,47.50
2023-04-28T17:04:47.169Z,47.61
2023-04-28T17:05:47.193Z,47.61
2023-04-28T17:06:47.378Z,47.61
2023-04-28T17:07:49.387Z,47.61
2023-04-28T17:08:47.597Z,47.71
2023-04-28T17:09:47.770Z,47.61
2023-04-28T17:10:47.902Z,47.71
2023-04-28T17:11:48.075Z,47.71
2023-04-28T17:12:48.182Z,47.71
2023-04-28T17:13:48.263Z,47.71
2023-04-28T17:14:48.389Z,47.71
2023-04-28T17:15:48.556Z,47.71
2023-04-28T17:16:48.695Z,47.61
2023-04-28T17:17:48.875Z,47.71
2023-04-28T17:18:48.991Z,47.61
2023-04-28T17:19:49.225Z,47.61
2023-04-28T17:20:49.199Z,47.61
2023-04-28T17:21:49.326Z,47.61
2023-04-28T17:22:49.431Z,47.61
2023-04-28T17:23:49.579Z,47.50
2023-04-28T17:24:49.730Z,47.50